weather.gov     
National Weather Service

Terminal Aerodrome Forecast
NWS Homepage
This page is being discontinued on March 12, 2014.
The same data is available at this site. Please update your bookmarks.
Thank you, and we apologize for the inconvenience.
Please send an email to SR-SRH.Webmaster@noaa.gov with any concerns.


Current Version
Previous Version:    01  02  03  04  05  06  07  08  09  10  11  12  13  14  15  16  17  18  19  20  21  22  23  24  25  
[Printable]
670
FTUS43 KDVN 202300
TAFMLI
TAF
KMLI 202320Z 2100/2124 23010KT P6SM SCT120 BKN250
     FM211100 22005KT 5SM BR VCSH SCT050 BKN080
     FM211500 25008KT 6SM BR VCSH BKN035
     FM211800 26008KT 4SM -TSRA BKN025CB
     FM212200 30011KT P6SM BKN040=


U.S. Dept. of Commerce
NOAA National Weather Service
1325 East West Highway
Silver Spring, MD 20910
E-mail: w-nws.webmaster@noaa.gov
Page last modified: May 16, 2007
NATIONAL WEATHER SERVICE: for Safety, for Work, for Fun - FOR LIFE